sensor_id;sensor_type;location;lat;lon;timestamp;temperature;humidity
43991;DHT22;29654;50.784;20.604;2023-05-10T00:01:34;12.70;39.40
43991;DHT22;29654;50.784;20.604;2023-05-10T00:06:36;12.70;39.50
43991;DHT22;29654;50.784;20.604;2023-05-10T00:11:39;12.60;39.40
43991;DHT22;29654;50.784;20.604;2023-05-10T00:16:43;12.60;39.40
43991;DHT22;29654;50.784;20.604;2023-05-10T00:21:46;12.60;39.50
43991;DHT22;29654;50.784;20.604;2023-05-10T00:26:48;12.60;39.50
43991;DHT22;29654;50.784;20.604;2023-05-10T00:31:52;12.60;39.50
43991;DHT22;29654;50.784;20.604;2023-05-10T00:36:55;12.60;39.60
43991;DHT22;29654;50.784;20.604;2023-05-10T00:41:57;12.50;39.60
43991;DHT22;29654;50.784;20.604;2023-05-10T00:47:02;12.50;39.70
43991;DHT22;29654;50.784;20.604;2023-05-10T00:52:05;12.50;39.80
43991;DHT22;29654;50.784;20.604;2023-05-10T00:57:08;12.50;39.80
43991;DHT22;29654;50.784;20.604;2023-05-10T01:02:12;12.50;39.80
43991;DHT22;29654;50.784;20.604;2023-05-10T01:07:15;12.50;39.90
43991;DHT22;29654;50.784;20.604;2023-05-10T01:12:18;12.40;39.80
43991;DHT22;29654;50.784;20.604;2023-05-10T01:17:22;12.40;39.90
43991;DHT22;29654;50.784;20.604;2023-05-10T01:33:54;12.40;40.60
43991;DHT22;29654;50.784;20.604;2023-05-10T01:39:04;12.30;40.30
43991;DHT22;29654;50.784;20.604;2023-05-10T01:44:16;12.30;40.40
43991;DHT22;29654;50.784;20.604;2023-05-10T01:49:25;12.30;40.50
43991;DHT22;29654;50.784;20.604;2023-05-10T01:54:29;12.30;40.50
43991;DHT22;29654;50.784;20.604;2023-05-10T01:59:34;12.30;41.10
43991;DHT22;29654;50.784;20.604;2023-05-10T02:04:43;12.20;40.50
43991;DHT22;29654;50.784;20.604;2023-05-10T02:09:47;12.20;40.60
43991;DHT22;29654;50.784;20.604;2023-05-10T02:14:51;12.10;40.70
43991;DHT22;29654;50.784;20.604;2023-05-10T02:19:56;12.10;40.80
43991;DHT22;29654;50.784;20.604;2023-05-10T02:25:01;12.00;41.00
43991;DHT22;29654;50.784;20.604;2023-05-10T02:30:07;12.00;41.10
43991;DHT22;29654;50.784;20.604;2023-05-10T02:35:12;12.00;41.30
43991;DHT22;29654;50.784;20.604;2023-05-10T02:40:16;11.90;41.30
43991;DHT22;29654;50.784;20.604;2023-05-10T02:45:23;11.90;41.20
43991;DHT22;29654;50.784;20.604;2023-05-10T02:50:32;11.90;41.40
43991;DHT22;29654;50.784;20.604;2023-05-10T02:55:37;11.90;41.50
43991;DHT22;29654;50.784;20.604;2023-05-10T03:00:42;11.90;41.50
43991;DHT22;29654;50.784;20.604;2023-05-10T03:05:46;11.90;41.40
43991;DHT22;29654;50.784;20.604;2023-05-10T03:10:55;11.90;41.60
43991;DHT22;29654;50.784;20.604;2023-05-10T03:16:08;11.90;41.90
43991;DHT22;29654;50.784;20.604;2023-05-10T03:21:14;12.00;42.20
43991;DHT22;29654;50.784;20.604;2023-05-10T03:26:24;12.10;42.50
43991;DHT22;29654;50.784;20.604;2023-05-10T03:31:38;12.30;42.40
43991;DHT22;29654;50.784;20.604;2023-05-10T03:36:43;12.40;42.00
43991;DHT22;29654;50.784;20.604;2023-05-10T03:41:45;12.50;42.00
43991;DHT22;29654;50.784;20.604;2023-05-10T03:46:48;12.50;41.90
43991;DHT22;29654;50.784;20.604;2023-05-10T03:51:52;12.50;41.90
43991;DHT22;29654;50.784;20.604;2023-05-10T03:56:55;12.60;42.00
43991;DHT22;29654;50.784;20.604;2023-05-10T04:01:58;12.60;42.00
43991;DHT22;29654;50.784;20.604;2023-05-10T04:07:03;12.60;42.00
43991;DHT22;29654;50.784;20.604;2023-05-10T04:12:06;12.70;42.20
43991;DHT22;29654;50.784;20.604;2023-05-10T04:17:08;12.80;42.20
43991;DHT22;29654;50.784;20.604;2023-05-10T04:22:12;12.90;42.20
43991;DHT22;29654;50.784;20.604;2023-05-10T04:27:15;13.00;42.30
43991;DHT22;29654;50.784;20.604;2023-05-10T04:32:17;13.10;42.20
43991;DHT22;29654;50.784;20.604;2023-05-10T04:37:22;13.20;42.20
43991;DHT22;29654;50.784;20.604;2023-05-10T04:42:25;13.30;42.90
43991;DHT22;29654;50.784;20.604;2023-05-10T04:47:27;13.50;42.30
43991;DHT22;29654;50.784;20.604;2023-05-10T04:52:31;13.70;42.70
43991;DHT22;29654;50.784;20.604;2023-05-10T04:57:34;14.20;43.00
43991;DHT22;29654;50.784;20.604;2023-05-10T05:02:36;14.60;42.70
43991;DHT22;29654;50.784;20.604;2023-05-10T05:07:42;15.10;42.30
43991;DHT22;29654;50.784;20.604;2023-05-10T05:12:46;15.50;41.70
43991;DHT22;29654;50.784;20.604;2023-05-10T05:17:49;15.90;41.60
43991;DHT22;29654;50.784;20.604;2023-05-10T05:22:53;16.20;41.30
43991;DHT22;29654;50.784;20.604;2023-05-10T05:27:55;16.60;40.70
43991;DHT22;29654;50.784;20.604;2023-05-10T05:32:58;16.80;40.90
43991;DHT22;29654;50.784;20.604;2023-05-10T05:38:01;17.00;40.00
43991;DHT22;29654;50.784;20.604;2023-05-10T05:43:04;17.10;39.90
43991;DHT22;29654;50.784;20.604;2023-05-10T05:48:07;17.30;39.50
43991;DHT22;29654;50.784;20.604;2023-05-10T05:53:11;17.50;39.50
43991;DHT22;29654;50.784;20.604;2023-05-10T05:58:14;17.60;39.30
43991;DHT22;29654;50.784;20.604;2023-05-10T06:03:17;17.70;39.10
43991;DHT22;29654;50.784;20.604;2023-05-10T06:08:21;17.80;39.00
43991;DHT22;29654;50.784;20.604;2023-05-10T06:13:23;18.00;38.70
43991;DHT22;29654;50.784;20.604;2023-05-10T06:18:29;18.00;38.60
43991;DHT22;29654;50.784;20.604;2023-05-10T06:23:33;18.10;38.70
43991;DHT22;29654;50.784;20.604;2023-05-10T06:28:36;18.30;38.50
43991;DHT22;29654;50.784;20.604;2023-05-10T06:33:39;18.40;38.40
43991;DHT22;29654;50.784;20.604;2023-05-10T06:38:43;18.50;38.20
43991;DHT22;29654;50.784;20.604;2023-05-10T06:43:46;18.60;38.10
43991;DHT22;29654;50.784;20.604;2023-05-10T06:48:48;18.70;37.90
43991;DHT22;29654;50.784;20.604;2023-05-10T06:53:52;18.80;37.70
43991;DHT22;29654;50.784;20.604;2023-05-10T06:58:55;18.90;37.30
43991;DHT22;29654;50.784;20.604;2023-05-10T07:03:58;19.10;37.10
43991;DHT22;29654;50.784;20.604;2023-05-10T07:09:01;19.20;37.30
43991;DHT22;29654;50.784;20.604;2023-05-10T07:14:04;19.30;37.00
43991;DHT22;29654;50.784;20.604;2023-05-10T07:19:07;19.40;36.80
43991;DHT22;29654;50.784;20.604;2023-05-10T07:24:11;19.50;36.70
43991;DHT22;29654;50.784;20.604;2023-05-10T07:29:13;19.60;36.70
43991;DHT22;29654;50.784;20.604;2023-05-10T07:34:16;19.70;36.70
43991;DHT22;29654;50.784;20.604;2023-05-10T07:39:20;19.80;36.40
43991;DHT22;29654;50.784;20.604;2023-05-10T07:44:22;19.80;36.30
43991;DHT22;29654;50.784;20.604;2023-05-10T07:49:26;19.80;36.30
43991;DHT22;29654;50.784;20.604;2023-05-10T07:54:30;20.00;36.50
43991;DHT22;29654;50.784;20.604;2023-05-10T07:59:32;20.20;36.50
43991;DHT22;29654;50.784;20.604;2023-05-10T08:04:35;20.30;36.40
43991;DHT22;29654;50.784;20.604;2023-05-10T08:09:39;20.50;36.10
43991;DHT22;29654;50.784;20.604;2023-05-10T08:14:42;20.60;35.90
43991;DHT22;29654;50.784;20.604;2023-05-10T08:19:44;20.70;35.50
43991;DHT22;29654;50.784;20.604;2023-05-10T08:24:49;20.80;35.40
43991;DHT22;29654;50.784;20.604;2023-05-10T08:29:51;20.90;35.20
43991;DHT22;29654;50.784;20.604;2023-05-10T08:34:54;21.00;35.10
43991;DHT22;29654;50.784;20.604;2023-05-10T08:39:58;21.10;35.30
43991;DHT22;29654;50.784;20.604;2023-05-10T08:45:01;21.30;34.90
43991;DHT22;29654;50.784;20.604;2023-05-10T08:50:06;21.40;34.50
43991;DHT22;29654;50.784;20.604;2023-05-10T08:55:10;21.60;34.60
43991;DHT22;29654;50.784;20.604;2023-05-10T09:00:14;21.70;34.20
43991;DHT22;29654;50.784;20.604;2023-05-10T09:05:17;21.70;34.10
43991;DHT22;29654;50.784;20.604;2023-05-10T09:10:21;21.80;33.60
43991;DHT22;29654;50.784;20.604;2023-05-10T09:15:26;21.80;33.30
43991;DHT22;29654;50.784;20.604;2023-05-10T09:20:29;21.90;33.70
43991;DHT22;29654;50.784;20.604;2023-05-10T09:25:33;21.90;33.10
43991;DHT22;29654;50.784;20.604;2023-05-10T09:30:36;22.00;32.80
43991;DHT22;29654;50.784;20.604;2023-05-10T09:35:38;22.00;33.00
43991;DHT22;29654;50.784;20.604;2023-05-10T09:40:51;22.10;32.90
43991;DHT22;29654;50.784;20.604;2023-05-10T09:45:56;22.10;32.00
43991;DHT22;29654;50.784;20.604;2023-05-10T09:50:59;22.20;33.00
43991;DHT22;29654;50.784;20.604;2023-05-10T09:56:03;22.30;32.20
43991;DHT22;29654;50.784;20.604;2023-05-10T10:01:11;22.30;32.00
43991;DHT22;29654;50.784;20.604;2023-05-10T10:06:19;22.40;32.20
43991;DHT22;29654;50.784;20.604;2023-05-10T10:11:23;22.50;31.60
43991;DHT22;29654;50.784;20.604;2023-05-10T10:16:27;22.60;32.10
43991;DHT22;29654;50.784;20.604;2023-05-10T10:21:31;22.80;32.40
43991;DHT22;29654;50.784;20.604;2023-05-10T10:26:37;23.00;32.30
43991;DHT22;29654;50.784;20.604;2023-05-10T10:31:46;23.20;31.70
43991;DHT22;29654;50.784;20.604;2023-05-10T10:36:51;23.30;30.90
43991;DHT22;29654;50.784;20.604;2023-05-10T10:41:57;23.20;30.40
43991;DHT22;29654;50.784;20.604;2023-05-10T10:47:22;23.10;30.50
43991;DHT22;29654;50.784;20.604;2023-05-10T10:52:27;23.00;30.30
43991;DHT22;29654;50.784;20.604;2023-05-10T10:57:42;22.90;30.90
43991;DHT22;29654;50.784;20.604;2023-05-10T11:02:47;22.90;30.40
43991;DHT22;29654;50.784;20.604;2023-05-10T11:07:52;22.80;30.60
43991;DHT22;29654;50.784;20.604;2023-05-10T11:13:01;22.80;30.40
43991;DHT22;29654;50.784;20.604;2023-05-10T11:18:18;22.80;30.60
43991;DHT22;29654;50.784;20.604;2023-05-10T11:23:21;22.90;30.10
43991;DHT22;29654;50.784;20.604;2023-05-10T11:28:26;22.90;30.20
43991;DHT22;29654;50.784;20.604;2023-05-10T11:33:29;22.90;30.30
43991;DHT22;29654;50.784;20.604;2023-05-10T11:38:33;22.90;30.70
43991;DHT22;29654;50.784;20.604;2023-05-10T11:43:37;22.90;30.10
43991;DHT22;29654;50.784;20.604;2023-05-10T11:48:40;22.90;30.00
43991;DHT22;29654;50.784;20.604;2023-05-10T11:53:44;22.90;30.10
43991;DHT22;29654;50.784;20.604;2023-05-10T11:58:53;22.90;30.10
43991;DHT22;29654;50.784;20.604;2023-05-10T12:03:57;22.90;29.90
43991;DHT22;29654;50.784;20.604;2023-05-10T12:09:05;23.10;30.20
43991;DHT22;29654;50.784;20.604;2023-05-10T12:14:10;23.20;29.70
43991;DHT22;29654;50.784;20.604;2023-05-10T12:19:18;23.20;29.70
43991;DHT22;29654;50.784;20.604;2023-05-10T12:24:21;23.20;29.40
43991;DHT22;29654;50.784;20.604;2023-05-10T12:29:30;23.10;29.50
43991;DHT22;29654;50.784;20.604;2023-05-10T12:34:34;23.10;29.40
43991;DHT22;29654;50.784;20.604;2023-05-10T12:39:39;23.10;29.30
43991;DHT22;29654;50.784;20.604;2023-05-10T12:44:44;23.10;29.60
43991;DHT22;29654;50.784;20.604;2023-05-10T12:49:46;23.20;29.70
43991;DHT22;29654;50.784;20.604;2023-05-10T12:54:49;23.20;29.40
43991;DHT22;29654;50.784;20.604;2023-05-10T12:59:53;23.30;29.20
43991;DHT22;29654;50.784;20.604;2023-05-10T13:04:56;23.40;29.20
43991;DHT22;29654;50.784;20.604;2023-05-10T13:09:58;23.40;29.50
43991;DHT22;29654;50.784;20.604;2023-05-10T13:15:03;23.60;29.00
43991;DHT22;29654;50.784;20.604;2023-05-10T13:20:07;23.60;28.80
43991;DHT22;29654;50.784;20.604;2023-05-10T13:25:10;23.60;28.90
43991;DHT22;29654;50.784;20.604;2023-05-10T13:30:14;23.60;28.90
43991;DHT22;29654;50.784;20.604;2023-05-10T13:35:17;23.60;28.70
43991;DHT22;29654;50.784;20.604;2023-05-10T13:40:20;23.60;28.70
43991;DHT22;29654;50.784;20.604;2023-05-10T13:45:24;23.70;28.70
43991;DHT22;29654;50.784;20.604;2023-05-10T13:50:26;23.70;28.40
43991;DHT22;29654;50.784;20.604;2023-05-10T13:55:29;23.70;28.70
43991;DHT22;29654;50.784;20.604;2023-05-10T14:00:33;23.70;28.40
43991;DHT22;29654;50.784;20.604;2023-05-10T14:05:36;23.60;28.30
43991;DHT22;29654;50.784;20.604;2023-05-10T14:10:39;23.60;28.30
43991;DHT22;29654;50.784;20.604;2023-05-10T14:15:43;23.50;28.30
43991;DHT22;29654;50.784;20.604;2023-05-10T14:20:45;23.50;28.30
43991;DHT22;29654;50.784;20.604;2023-05-10T14:25:48;23.50;28.20
43991;DHT22;29654;50.784;20.604;2023-05-10T14:30:53;23.50;28.50
43991;DHT22;29654;50.784;20.604;2023-05-10T14:35:55;23.50;28.30
43991;DHT22;29654;50.784;20.604;2023-05-10T14:40:58;23.50;28.20
43991;DHT22;29654;50.784;20.604;2023-05-10T14:46:02;23.60;28.50
43991;DHT22;29654;50.784;20.604;2023-05-10T14:51:05;23.70;28.10
43991;DHT22;29654;50.784;20.604;2023-05-10T14:56:08;23.70;27.80
43991;DHT22;29654;50.784;20.604;2023-05-10T15:01:12;23.70;27.80
43991;DHT22;29654;50.784;20.604;2023-05-10T15:06:15;23.60;27.80
43991;DHT22;29654;50.784;20.604;2023-05-10T15:11:18;23.60;27.80
43991;DHT22;29654;50.784;20.604;2023-05-10T15:16:22;23.60;27.90
43991;DHT22;29654;50.784;20.604;2023-05-10T15:21:25;23.60;27.90
43991;DHT22;29654;50.784;20.604;2023-05-10T15:26:28;23.70;27.70
43991;DHT22;29654;50.784;20.604;2023-05-10T15:31:32;23.70;27.80
43991;DHT22;29654;50.784;20.604;2023-05-10T15:37:00;23.60;27.90
43991;DHT22;29654;50.784;20.604;2023-05-10T15:42:03;23.60;27.80
43991;DHT22;29654;50.784;20.604;2023-05-10T15:47:07;23.50;27.60
43991;DHT22;29654;50.784;20.604;2023-05-10T15:52:10;23.50;27.70
43991;DHT22;29654;50.784;20.604;2023-05-10T15:57:13;23.40;27.70
43991;DHT22;29654;50.784;20.604;2023-05-10T16:02:17;23.40;27.60
43991;DHT22;29654;50.784;20.604;2023-05-10T16:07:19;23.30;27.60
43991;DHT22;29654;50.784;20.604;2023-05-10T16:12:22;23.20;27.70
43991;DHT22;29654;50.784;20.604;2023-05-10T16:17:26;23.10;27.80
43991;DHT22;29654;50.784;20.604;2023-05-10T16:22:29;23.10;27.90
43991;DHT22;29654;50.784;20.604;2023-05-10T16:27:31;23.00;27.60
43991;DHT22;29654;50.784;20.604;2023-05-10T16:32:35;22.90;27.80
43991;DHT22;29654;50.784;20.604;2023-05-10T16:37:38;22.80;27.90
43991;DHT22;29654;50.784;20.604;2023-05-10T16:42:40;22.70;27.80
43991;DHT22;29654;50.784;20.604;2023-05-10T16:47:44;22.60;27.80
43991;DHT22;29654;50.784;20.604;2023-05-10T16:52:47;22.60;27.90
43991;DHT22;29654;50.784;20.604;2023-05-10T16:57:50;22.40;27.90
43991;DHT22;29654;50.784;20.604;2023-05-10T17:02:59;22.30;28.00
43991;DHT22;29654;50.784;20.604;2023-05-10T17:08:02;22.20;27.90
43991;DHT22;29654;50.784;20.604;2023-05-10T17:13:05;22.10;28.10
43991;DHT22;29654;50.784;20.604;2023-05-10T17:18:09;22.10;28.20
43991;DHT22;29654;50.784;20.604;2023-05-10T17:23:11;22.00;28.30
43991;DHT22;29654;50.784;20.604;2023-05-10T17:28:14;21.90;28.20
43991;DHT22;29654;50.784;20.604;2023-05-10T17:33:18;21.80;28.20
43991;DHT22;29654;50.784;20.604;2023-05-10T17:38:21;21.60;28.20
43991;DHT22;29654;50.784;20.604;2023-05-10T17:43:24;21.50;28.40
43991;DHT22;29654;50.784;20.604;2023-05-10T17:48:28;21.30;28.50
43991;DHT22;29654;50.784;20.604;2023-05-10T17:53:30;21.20;28.60
43991;DHT22;29654;50.784;20.604;2023-05-10T17:58:33;21.10;28.70
43991;DHT22;29654;50.784;20.604;2023-05-10T18:03:39;20.90;28.60
43991;DHT22;29654;50.784;20.604;2023-05-10T18:08:42;20.80;28.70
43991;DHT22;29654;50.784;20.604;2023-05-10T18:13:44;20.60;28.80
43991;DHT22;29654;50.784;20.604;2023-05-10T18:18:48;20.40;28.90
43991;DHT22;29654;50.784;20.604;2023-05-10T18:23:51;20.30;29.00
43991;DHT22;29654;50.784;20.604;2023-05-10T18:28:53;20.10;29.00
43991;DHT22;29654;50.784;20.604;2023-05-10T18:33:57;20.00;29.10
43991;DHT22;29654;50.784;20.604;2023-05-10T18:39:00;19.90;29.20
43991;DHT22;29654;50.784;20.604;2023-05-10T18:44:03;19.80;29.40
43991;DHT22;29654;50.784;20.604;2023-05-10T18:49:07;19.60;29.50
43991;DHT22;29654;50.784;20.604;2023-05-10T18:54:09;19.50;29.90
43991;DHT22;29654;50.784;20.604;2023-05-10T18:59:12;19.40;29.90
43991;DHT22;29654;50.784;20.604;2023-05-10T19:04:16;19.20;30.10
43991;DHT22;29654;50.784;20.604;2023-05-10T19:09:19;19.10;30.40
43991;DHT22;29654;50.784;20.604;2023-05-10T19:14:22;18.90;30.60
43991;DHT22;29654;50.784;20.604;2023-05-10T19:19:26;18.70;30.70
43991;DHT22;29654;50.784;20.604;2023-05-10T19:24:29;18.60;31.00
43991;DHT22;29654;50.784;20.604;2023-05-10T19:29:31;18.40;31.00
43991;DHT22;29654;50.784;20.604;2023-05-10T19:34:35;18.20;31.20
43991;DHT22;29654;50.784;20.604;2023-05-10T19:39:38;18.10;31.30
43991;DHT22;29654;50.784;20.604;2023-05-10T19:44:41;17.90;31.40
43991;DHT22;29654;50.784;20.604;2023-05-10T19:49:46;17.80;31.60
43991;DHT22;29654;50.784;20.604;2023-05-10T19:54:48;17.60;31.60
43991;DHT22;29654;50.784;20.604;2023-05-10T19:59:51;17.50;31.70
43991;DHT22;29654;50.784;20.604;2023-05-10T20:04:55;17.40;31.80
43991;DHT22;29654;50.784;20.604;2023-05-10T20:09:58;17.20;31.80
43991;DHT22;29654;50.784;20.604;2023-05-10T20:15:00;17.10;31.90
43991;DHT22;29654;50.784;20.604;2023-05-10T20:20:05;17.00;32.00
43991;DHT22;29654;50.784;20.604;2023-05-10T20:25:09;16.80;32.20
43991;DHT22;29654;50.784;20.604;2023-05-10T20:30:12;16.70;32.30
43991;DHT22;29654;50.784;20.604;2023-05-10T20:35:16;16.70;32.50
43991;DHT22;29654;50.784;20.604;2023-05-10T20:40:19;16.60;32.70
43991;DHT22;29654;50.784;20.604;2023-05-10T20:45:22;16.50;32.80
43991;DHT22;29654;50.784;20.604;2023-05-10T20:50:26;16.50;32.80
43991;DHT22;29654;50.784;20.604;2023-05-10T20:55:29;16.40;33.20
43991;DHT22;29654;50.784;20.604;2023-05-10T21:00:31;16.30;33.20
43991;DHT22;29654;50.784;20.604;2023-05-10T21:05:35;16.30;33.30
43991;DHT22;29654;50.784;20.604;2023-05-10T21:10:38;16.20;33.50
43991;DHT22;29654;50.784;20.604;2023-05-10T21:15:41;16.10;33.40
43991;DHT22;29654;50.784;20.604;2023-05-10T21:20:44;15.90;33.60
43991;DHT22;29654;50.784;20.604;2023-05-10T21:25:47;15.90;33.80
43991;DHT22;29654;50.784;20.604;2023-05-10T21:30:50;15.80;33.80
43991;DHT22;29654;50.784;20.604;2023-05-10T21:35:54;15.70;33.80
43991;DHT22;29654;50.784;20.604;2023-05-10T21:40:57;15.70;34.00
43991;DHT22;29654;50.784;20.604;2023-05-10T21:46:00;15.60;34.00
43991;DHT22;29654;50.784;20.604;2023-05-10T21:51:04;15.50;34.20
43991;DHT22;29654;50.784;20.604;2023-05-10T21:56:07;15.40;34.30
43991;DHT22;29654;50.784;20.604;2023-05-10T22:01:09;15.40;34.50
43991;DHT22;29654;50.784;20.604;2023-05-10T22:06:13;15.30;34.60
43991;DHT22;29654;50.784;20.604;2023-05-10T22:11:16;15.30;34.70
43991;DHT22;29654;50.784;20.604;2023-05-10T22:16:18;15.20;34.70
43991;DHT22;29654;50.784;20.604;2023-05-10T22:21:22;15.20;34.70
43991;DHT22;29654;50.784;20.604;2023-05-10T22:26:25;15.20;35.00
43991;DHT22;29654;50.784;20.604;2023-05-10T22:31:27;15.10;35.00
43991;DHT22;29654;50.784;20.604;2023-05-10T22:36:32;15.10;35.10
43991;DHT22;29654;50.784;20.604;2023-05-10T22:41:35;15.00;35.20
43991;DHT22;29654;50.784;20.604;2023-05-10T22:46:37;15.00;35.20
43991;DHT22;29654;50.784;20.604;2023-05-10T22:51:41;15.00;35.30
43991;DHT22;29654;50.784;20.604;2023-05-10T22:56:44;15.00;35.60
43991;DHT22;29654;50.784;20.604;2023-05-10T23:01:47;14.90;35.60
43991;DHT22;29654;50.784;20.604;2023-05-10T23:06:51;14.90;35.70
43991;DHT22;29654;50.784;20.604;2023-05-10T23:11:54;14.90;35.70
43991;DHT22;29654;50.784;20.604;2023-05-10T23:16:57;14.90;35.70
43991;DHT22;29654;50.784;20.604;2023-05-10T23:22:01;14.90;35.70
43991;DHT22;29654;50.784;20.604;2023-05-10T23:27:03;14.90;35.80
43991;DHT22;29654;50.784;20.604;2023-05-10T23:32:06;15.00;35.80
43991;DHT22;29654;50.784;20.604;2023-05-10T23:37:10;15.00;35.70
43991;DHT22;29654;50.784;20.604;2023-05-10T23:42:13;15.00;35.80
43991;DHT22;29654;50.784;20.604;2023-05-10T23:47:16;15.00;35.70
43991;DHT22;29654;50.784;20.604;2023-05-10T23:52:20;14.90;35.60
43991;DHT22;29654;50.784;20.604;2023-05-10T23:57:24;15.00;35.80
